Time;durP1;ratioP1;P1;durP2;ratioP2;P2;SDS_P1;SDS_P2;PMS_P1;PMS_P2;Temp;Humidity;BMP_temperature;BMP_pressure;BME280_temperature;BME280_humidity;BME280_pressure;Samples;Min_cycle;Max_cycle;Signal;HPM_P1;HPM_P2
2023/09/10 00:01:59;;;;;;;18.83;10.47;;;;;;;;;;4975227;28;20443;-66
2023/09/10 00:04:26;;;;;;;11.50;10.33;;;;;;;;;;4975093;28;20977;-66
2023/09/10 00:06:52;;;;;;;11.40;10.30;;;;;;;;;;4975783;28;20481;-66
2023/09/10 00:09:21;;;;;;;12.83;10.13;;;;;;;;;;4975882;28;20417;-66
2023/09/10 00:11:49;;;;;;;12.40;10.67;;;;;;;;;;4975531;28;20899;-66
2023/09/10 00:14:15;;;;;;;10.87;9.80;;;;;;;;;;4975457;28;20431;-66
2023/09/10 00:16:41;;;;;;;10.70;9.70;;;;;;;;;;4974294;28;20441;-66
2023/09/10 00:19:07;;;;;;;12.83;10.50;;;;;;;;;;4975968;28;20915;-66
2023/09/10 00:21:33;;;;;;;11.40;10.30;;;;;;;;;;4975301;28;20428;-66
2023/09/10 00:23:59;;;;;;;13.30;10.20;;;;;;;;;;4974641;28;20497;-66
2023/09/10 00:26:26;;;;;;;16.47;9.87;;;;;;;;;;4974874;28;20517;-66
2023/09/10 00:28:52;;;;;;;12.53;11.30;;;;;;;;;;4975669;28;20496;-67
2023/09/10 00:31:18;;;;;;;13.57;9.73;;;;;;;;;;4975030;28;20414;-66
2023/09/10 00:33:45;;;;;;;10.50;9.70;;;;;;;;;;4974961;28;20422;-66
2023/09/10 00:36:11;;;;;;;11.67;10.67;;;;;;;;;;4975242;28;20413;-66
2023/09/10 00:38:39;;;;;;;11.67;10.57;;;;;;;;;;4975046;28;20504;-66
2023/09/10 00:41:07;;;;;;;10.97;10.00;;;;;;;;;;4975310;28;20440;-66
2023/09/10 00:43:33;;;;;;;11.17;9.70;;;;;;;;;;4973718;28;20441;-66
2023/09/10 00:46:00;;;;;;;10.73;9.83;;;;;;;;;;4974266;28;20449;-66
2023/09/10 00:48:26;;;;;;;11.17;10.33;;;;;;;;;;4974644;28;20849;-66
2023/09/10 00:50:52;;;;;;;17.80;10.80;;;;;;;;;;4975000;28;20420;-66
2023/09/10 00:53:19;;;;;;;10.57;9.67;;;;;;;;;;4975017;28;20413;-66
2023/09/10 00:55:46;;;;;;;10.70;9.90;;;;;;;;;;4974567;28;20917;-66
2023/09/10 00:58:12;;;;;;;12.73;10.70;;;;;;;;;;4974983;28;20425;-66
2023/09/10 01:00:38;;;;;;;10.60;9.70;;;;;;;;;;4974344;28;20421;-66
2023/09/10 01:03:05;;;;;;;12.70;10.93;;;;;;;;;;4974672;28;20424;-66
2023/09/10 01:05:32;;;;;;;12.10;10.73;;;;;;;;;;4974759;28;20427;-66
2023/09/10 01:07:58;;;;;;;11.60;10.50;;;;;;;;;;4972787;28;20849;-66
2023/09/10 01:10:26;;;;;;;12.27;11.00;;;;;;;;;;4974492;28;20784;-66
2023/09/10 01:13:01;;;;;;;13.23;11.07;;;;;;;;;;4974309;28;20427;-66
2023/09/10 01:15:30;;;;;;;12.20;11.00;;;;;;;;;;4974212;28;20944;-66
2023/09/10 01:18:06;;;;;;;11.23;10.23;;;;;;;;;;4974208;28;20422;-66
2023/09/10 01:20:51;;;;;;;10.90;9.97;;;;;;;;;;4974169;28;20469;-66
2023/09/10 01:23:36;;;;;;;10.60;9.53;;;;;;;;;;4974068;28;20418;-66
2023/09/10 01:26:02;;;;;;;12.13;10.90;;;;;;;;;;4974171;28;20477;-66
2023/09/10 01:28:30;;;;;;;12.53;10.40;;;;;;;;;;4974007;28;20481;-66
2023/09/10 01:30:56;;;;;;;10.10;9.07;;;;;;;;;;4972621;28;20878;-66
2023/09/10 01:33:28;;;;;;;13.00;10.43;;;;;;;;;;4974133;28;20765;-66
2023/09/10 01:36:12;;;;;;;11.93;10.77;;;;;;;;;;4973119;28;20425;-66
2023/09/10 01:38:41;;;;;;;10.70;9.70;;;;;;;;;;4973681;28;20417;-66
2023/09/10 01:41:17;;;;;;;12.27;10.97;;;;;;;;;;4973953;28;20467;-66
2023/09/10 01:43:44;;;;;;;13.80;10.07;;;;;;;;;;4973939;28;20409;-66
2023/09/10 01:46:10;;;;;;;12.30;10.60;;;;;;;;;;4972461;28;20850;-66
2023/09/10 01:48:38;;;;;;;12.40;11.20;;;;;;;;;;4973461;28;20477;-66
2023/09/10 01:51:04;;;;;;;15.80;10.00;;;;;;;;;;4973922;28;20417;-66
2023/09/10 01:53:30;;;;;;;11.47;10.27;;;;;;;;;;4973781;28;20827;-66
2023/09/10 01:55:58;;;;;;;10.23;9.53;;;;;;;;;;4973175;28;20421;-67
2023/09/10 01:58:27;;;;;;;12.93;10.40;;;;;;;;;;4973391;28;20417;-66
2023/09/10 02:00:53;;;;;;;10.27;9.27;;;;;;;;;;4974349;28;20793;-66
2023/09/10 02:03:19;;;;;;;10.47;9.50;;;;;;;;;;4973695;28;20417;-66
2023/09/10 02:05:45;;;;;;;12.20;11.03;;;;;;;;;;4973647;28;20415;-66
2023/09/10 02:08:11;;;;;;;10.70;9.70;;;;;;;;;;4973092;28;20468;-66
2023/09/10 02:10:39;;;;;;;10.30;9.50;;;;;;;;;;4973633;28;20511;-66
2023/09/10 02:13:05;;;;;;;10.60;9.67;;;;;;;;;;4973690;28;20413;-66
2023/09/10 02:15:31;;;;;;;12.57;11.57;;;;;;;;;;4973564;28;20457;-66
2023/09/10 02:17:57;;;;;;;13.40;10.60;;;;;;;;;;4973812;28;20419;-66
2023/09/10 02:20:23;;;;;;;13.73;11.07;;;;;;;;;;4973403;28;20786;-66
2023/09/10 02:22:49;;;;;;;11.97;10.97;;;;;;;;;;4973386;28;20511;-66
2023/09/10 02:25:16;;;;;;;11.77;10.70;;;;;;;;;;4973563;28;20468;-66
2023/09/10 02:27:44;;;;;;;11.77;10.67;;;;;;;;;;4973642;28;20842;-66
2023/09/10 02:30:10;;;;;;;11.87;10.60;;;;;;;;;;4973559;28;20938;-66
2023/09/10 02:32:38;;;;;;;11.33;10.20;;;;;;;;;;4973516;28;20427;-66
2023/09/10 02:35:04;;;;;;;11.20;10.30;;;;;;;;;;4973189;28;20455;-66
2023/09/10 02:37:31;;;;;;;13.87;10.60;;;;;;;;;;4973207;28;20444;-66
2023/09/10 02:40:00;;;;;;;12.90;11.67;;;;;;;;;;4973437;28;20419;-66
2023/09/10 02:42:26;;;;;;;12.37;11.27;;;;;;;;;;4973077;28;20439;-66
2023/09/10 02:44:52;;;;;;;12.40;10.20;;;;;;;;;;4972957;28;20427;-66
2023/09/10 02:47:18;;;;;;;12.03;10.80;;;;;;;;;;4973463;28;20481;-66
2023/09/10 02:49:44;;;;;;;11.87;10.77;;;;;;;;;;4977272;28;20840;-66
2023/09/10 02:52:12;;;;;;;11.30;10.40;;;;;;;;;;4976798;28;20440;-66
2023/09/10 02:54:38;;;;;;;11.60;10.70;;;;;;;;;;4975690;28;20449;-66
2023/09/10 02:57:04;;;;;;;11.30;10.17;;;;;;;;;;4976782;28;20423;-66
2023/09/10 02:59:30;;;;;;;12.33;11.23;;;;;;;;;;4977191;28;20796;-66
2023/09/10 03:01:58;;;;;;;11.40;10.40;;;;;;;;;;4976739;28;20525;-66
2023/09/10 03:04:24;;;;;;;12.83;11.10;;;;;;;;;;4976649;28;20443;-66
2023/09/10 03:06:51;;;;;;;11.73;9.73;;;;;;;;;;4976344;28;20416;-66
2023/09/10 03:09:17;;;;;;;12.10;10.93;;;;;;;;;;4976756;28;20493;-66
2023/09/10 03:11:44;;;;;;;12.03;10.93;;;;;;;;;;4976821;28;20410;-66
2023/09/10 03:14:10;;;;;;;12.40;10.77;;;;;;;;;;4976674;28;20875;-66
2023/09/10 03:16:39;;;;;;;12.40;11.30;;;;;;;;;;4976697;28;20450;-66
2023/09/10 03:19:06;;;;;;;12.60;11.50;;;;;;;;;;4976613;28;20784;-66
2023/09/10 03:21:32;;;;;;;12.67;11.13;;;;;;;;;;4978061;28;20453;-66
2023/09/10 03:23:58;;;;;;;14.97;13.10;;;;;;;;;;4978130;28;20415;-66
2023/09/10 03:26:24;;;;;;;13.13;11.93;;;;;;;;;;4977134;28;20915;-66
2023/09/10 03:28:50;;;;;;;12.67;11.57;;;;;;;;;;4976488;28;20561;-66
2023/09/10 03:31:15;;;;;;;13.47;12.20;;;;;;;;;;4975974;28;20501;-66
2023/09/10 03:33:43;;;;;;;17.23;11.83;;;;;;;;;;4976598;28;20439;-66
2023/09/10 03:36:11;;;;;;;18.30;13.60;;;;;;;;;;4975455;28;20797;-66
2023/09/10 03:38:39;;;;;;;12.67;11.40;;;;;;;;;;4975970;28;20449;-66
2023/09/10 03:41:09;;;;;;;13.07;11.90;;;;;;;;;;4975815;28;20425;-66
2023/09/10 03:43:35;;;;;;;13.53;10.93;;;;;;;;;;4976384;28;20593;-66
2023/09/10 03:46:01;;;;;;;12.10;11.10;;;;;;;;;;4976229;28;20426;-66
2023/09/10 03:48:27;;;;;;;12.33;11.13;;;;;;;;;;4975589;28;20531;-66
2023/09/10 03:50:53;;;;;;;12.87;11.43;;;;;;;;;;4976016;28;20801;-66
2023/09/10 03:53:19;;;;;;;15.03;11.00;;;;;;;;;;4975716;28;20436;-66
2023/09/10 03:55:45;;;;;;;12.30;11.30;;;;;;;;;;4974513;28;20434;-66
2023/09/10 03:58:11;;;;;;;11.83;10.83;;;;;;;;;;4975751;28;20433;-66
2023/09/10 04:00:37;;;;;;;11.10;10.17;;;;;;;;;;4974615;28;20808;-66
2023/09/10 04:03:04;;;;;;;14.53;10.90;;;;;;;;;;4975780;28;20443;-66
2023/09/10 04:05:30;;;;;;;11.60;10.60;;;;;;;;;;4975714;28;20505;-66
2023/09/10 04:07:56;;;;;;;12.73;10.90;;;;;;;;;;4975869;28;20461;-66
2023/09/10 04:10:22;;;;;;;11.17;10.10;;;;;;;;;;4975570;28;20472;-66
2023/09/10 04:12:50;;;;;;;11.57;10.57;;;;;;;;;;4975321;28;20448;-66
2023/09/10 04:15:16;;;;;;;12.30;11.20;;;;;;;;;;4975589;28;20419;-66
2023/09/10 04:17:42;;;;;;;10.43;9.50;;;;;;;;;;4975220;28;20445;-66
2023/09/10 04:20:13;;;;;;;13.07;11.97;;;;;;;;;;4975749;28;20518;-66
2023/09/10 04:22:39;;;;;;;13.40;10.90;;;;;;;;;;4975088;28;20538;-66
2023/09/10 04:25:06;;;;;;;11.93;10.77;;;;;;;;;;4975528;28;20926;-66
2023/09/10 04:27:32;;;;;;;12.07;10.37;;;;;;;;;;4975318;28;20888;-66
2023/09/10 04:29:58;;;;;;;11.93;10.83;;;;;;;;;;4975437;28;20486;-66
2023/09/10 04:32:24;;;;;;;11.30;10.17;;;;;;;;;;4973657;28;20419;-66
2023/09/10 04:34:49;;;;;;;10.83;9.93;;;;;;;;;;4973783;28;20523;-66
2023/09/10 04:37:18;;;;;;;11.70;10.70;;;;;;;;;;4973774;28;20575;-66
2023/09/10 04:39:46;;;;;;;10.87;9.67;;;;;;;;;;4975625;28;20476;-66
2023/09/10 04:42:12;;;;;;;16.07;10.07;;;;;;;;;;4973495;28;20450;-66
2023/09/10 04:44:38;;;;;;;10.97;9.87;;;;;;;;;;4974771;28;20426;-66
2023/09/10 04:47:04;;;;;;;10.40;9.40;;;;;;;;;;4974682;28;20474;-66
2023/09/10 04:49:32;;;;;;;10.60;9.60;;;;;;;;;;4973758;28;20503;-66
2023/09/10 04:52:01;;;;;;;10.37;9.50;;;;;;;;;;4975026;28;20439;-66
2023/09/10 04:54:27;;;;;;;9.50;8.57;;;;;;;;;;4974305;28;20427;-66
2023/09/10 04:56:53;;;;;;;11.13;10.07;;;;;;;;;;4974988;28;20457;-66
2023/09/10 04:59:22;;;;;;;12.27;10.93;;;;;;;;;;4974998;28;20446;-66
2023/09/10 05:01:48;;;;;;;12.73;10.03;;;;;;;;;;4975040;28;20449;-66
2023/09/10 05:04:14;;;;;;;11.00;10.00;;;;;;;;;;4973674;28;20909;-66
2023/09/10 05:06:40;;;;;;;10.97;10.07;;;;;;;;;;4974564;28;20498;-66
2023/09/10 05:09:08;;;;;;;11.77;10.03;;;;;;;;;;4975124;28;20513;-66
2023/09/10 05:11:34;;;;;;;10.57;9.67;;;;;;;;;;4974867;28;20431;-66
2023/09/10 05:14:00;;;;;;;10.27;9.37;;;;;;;;;;4974910;28;20465;-66
2023/09/10 05:16:26;;;;;;;10.97;9.87;;;;;;;;;;4973764;28;20444;-66
2023/09/10 05:18:52;;;;;;;11.63;9.87;;;;;;;;;;4974061;28;20417;-66
2023/09/10 05:21:20;;;;;;;11.87;9.63;;;;;;;;;;4974686;28;20418;-66
2023/09/10 05:23:45;;;;;;;11.97;11.07;;;;;;;;;;4975217;28;20461;-66
2023/09/10 05:26:11;;;;;;;11.67;10.30;;;;;;;;;;4973906;28;20906;-66
2023/09/10 05:28:40;;;;;;;10.87;9.93;;;;;;;;;;4974439;28;20878;-66
2023/09/10 05:31:07;;;;;;;11.93;10.87;;;;;;;;;;4974258;28;20981;-66
2023/09/10 05:33:34;;;;;;;12.03;10.40;;;;;;;;;;4974771;28;20536;-66
2023/09/10 05:36:02;;;;;;;11.40;10.40;;;;;;;;;;4974068;28;20933;-66
2023/09/10 05:38:31;;;;;;;11.77;10.87;;;;;;;;;;4974539;28;20415;-66
2023/09/10 05:41:01;;;;;;;11.30;10.23;;;;;;;;;;4973680;28;20762;-66
2023/09/10 05:43:29;;;;;;;10.20;9.50;;;;;;;;;;4973864;28;20439;-66
2023/09/10 05:45:56;;;;;;;10.90;9.70;;;;;;;;;;4973920;28;20419;-66
2023/09/10 05:48:22;;;;;;;11.70;10.57;;;;;;;;;;4973607;28;20516;-66
2023/09/10 05:50:48;;;;;;;11.00;10.13;;;;;;;;;;4973386;28;20527;-66
2023/09/10 05:53:17;;;;;;;11.27;10.10;;;;;;;;;;4972371;28;20441;-66
2023/09/10 05:55:45;;;;;;;11.97;11.07;;;;;;;;;;4973621;28;20424;-66
2023/09/10 05:58:11;;;;;;;11.20;10.43;;;;;;;;;;4973417;28;20968;-66
2023/09/10 06:00:37;;;;;;;11.83;10.70;;;;;;;;;;4973821;28;20426;-66
2023/09/10 06:03:06;;;;;;;12.83;11.63;;;;;;;;;;4973871;28;20444;-66
2023/09/10 06:05:32;;;;;;;12.33;10.90;;;;;;;;;;4974136;28;20793;-66
2023/09/10 06:07:58;;;;;;;11.67;10.67;;;;;;;;;;4973110;28;20485;-66
2023/09/10 06:10:24;;;;;;;11.70;10.67;;;;;;;;;;4973661;28;20451;-66
2023/09/10 06:12:52;;;;;;;11.67;10.63;;;;;;;;;;4973433;28;20406;-66
2023/09/10 06:15:21;;;;;;;11.80;10.60;;;;;;;;;;4973356;28;20485;-66
2023/09/10 06:17:47;;;;;;;11.57;10.57;;;;;;;;;;4973410;28;20422;-66
2023/09/10 06:20:14;;;;;;;10.17;9.47;;;;;;;;;;4972292;28;20416;-66
2023/09/10 06:22:40;;;;;;;11.03;10.17;;;;;;;;;;4972700;28;20427;-66
2023/09/10 06:25:06;;;;;;;12.70;10.40;;;;;;;;;;4973136;28;20433;-66
2023/09/10 06:27:35;;;;;;;17.90;10.73;;;;;;;;;;4973316;28;20470;-66
2023/09/10 06:30:01;;;;;;;10.80;9.70;;;;;;;;;;4973322;28;20445;-66
2023/09/10 06:32:27;;;;;;;11.33;9.60;;;;;;;;;;4973417;28;20412;-66
2023/09/10 06:34:53;;;;;;;11.87;10.90;;;;;;;;;;4973555;28;20427;-66
2023/09/10 06:37:19;;;;;;;10.77;9.77;;;;;;;;;;4973623;28;20883;-66
2023/09/10 06:39:45;;;;;;;12.47;10.77;;;;;;;;;;4973013;28;20412;-66
2023/09/10 06:42:12;;;;;;;11.33;9.87;;;;;;;;;;4973091;28;20421;-66
2023/09/10 06:44:42;;;;;;;11.33;10.33;;;;;;;;;;4971939;28;20941;-66
2023/09/10 06:47:10;;;;;;;11.83;10.63;;;;;;;;;;4972615;28;20482;-66
2023/09/10 06:49:36;;;;;;;11.03;10.20;;;;;;;;;;4973698;28;20468;-66
2023/09/10 06:52:03;;;;;;;11.50;10.57;;;;;;;;;;4973601;28;20435;-66
2023/09/10 06:54:31;;;;;;;10.60;9.70;;;;;;;;;;4972545;28;20428;-66
2023/09/10 06:57:01;;;;;;;10.50;9.73;;;;;;;;;;4973309;28;20484;-66
2023/09/10 06:59:29;;;;;;;10.87;9.80;;;;;;;;;;4974059;28;20407;-66
2023/09/10 07:01:58;;;;;;;10.70;9.80;;;;;;;;;;4972903;28;20564;-66
2023/09/10 07:04:27;;;;;;;11.10;10.20;;;;;;;;;;4973608;28;20425;-66
2023/09/10 07:06:53;;;;;;;10.77;9.77;;;;;;;;;;4973346;28;20885;-66
2023/09/10 07:09:23;;;;;;;15.50;10.93;;;;;;;;;;4973458;28;20453;-63
2023/09/10 07:11:52;;;;;;;35.17;28.43;;;;;;;;;;4973453;28;20440;-63
2023/09/10 07:14:19;;;;;;;11.80;10.80;;;;;;;;;;4973400;28;20490;-63
2023/09/10 07:16:48;;;;;;;12.13;11.07;;;;;;;;;;4973387;28;20413;-63
2023/09/10 07:19:15;;;;;;;16.43;11.10;;;;;;;;;;4973302;28;20407;-65
2023/09/10 07:21:41;;;;;;;15.60;10.50;;;;;;;;;;4973382;28;20903;-65
2023/09/10 07:24:09;;;;;;;12.10;10.40;;;;;;;;;;4973445;28;20412;-65
2023/09/10 07:26:38;;;;;;;22.67;20.17;;;;;;;;;;4973371;28;20464;-65
2023/09/10 07:29:04;;;;;;;33.13;22.00;;;;;;;;;;4973331;28;20548;-65
2023/09/10 07:31:30;;;;;;;22.50;18.87;;;;;;;;;;4973383;28;20420;-65
2023/09/10 07:33:56;;;;;;;11.00;10.03;;;;;;;;;;4974429;28;20893;-65
2023/09/10 07:36:25;;;;;;;11.23;10.23;;;;;;;;;;4977030;28;20443;-65
2023/09/10 07:38:54;;;;;;;12.10;10.90;;;;;;;;;;4976812;28;20422;-65
2023/09/10 07:41:23;;;;;;;10.97;10.13;;;;;;;;;;4976672;28;20418;-65
2023/09/10 07:43:49;;;;;;;10.00;9.10;;;;;;;;;;4976669;28;20852;-65
2023/09/10 07:46:15;;;;;;;11.43;10.47;;;;;;;;;;4976550;28;20797;-65
2023/09/10 07:48:41;;;;;;;9.20;8.50;;;;;;;;;;4976551;28;20498;-65
2023/09/10 07:51:07;;;;;;;12.00;9.73;;;;;;;;;;4976598;28;20418;-65
2023/09/10 07:53:33;;;;;;;11.83;10.73;;;;;;;;;;4976497;28;20438;-65
2023/09/10 07:55:59;;;;;;;15.17;13.90;;;;;;;;;;4975289;28;20907;-65
2023/09/10 07:58:28;;;;;;;11.07;10.10;;;;;;;;;;4975255;28;20446;-65
2023/09/10 08:00:56;;;;;;;11.83;10.80;;;;;;;;;;4976578;28;20428;-65
2023/09/10 08:03:26;;;;;;;12.90;11.60;;;;;;;;;;4976523;28;20423;-65
2023/09/10 08:05:52;;;;;;;12.23;10.30;;;;;;;;;;4976750;28;20798;-65
2023/09/10 08:08:18;;;;;;;11.47;10.47;;;;;;;;;;4976058;28;20471;-65
2023/09/10 08:10:45;;;;;;;10.10;9.10;;;;;;;;;;4976393;28;20411;-65
2023/09/10 08:13:14;;;;;;;14.73;9.63;;;;;;;;;;4976224;28;20417;-65
2023/09/10 08:15:41;;;;;;;11.07;9.57;;;;;;;;;;4976027;28;20434;-65
2023/09/10 08:18:10;;;;;;;11.43;9.27;;;;;;;;;;4976026;28;20449;-65
2023/09/10 08:20:37;;;;;;;11.07;9.83;;;;;;;;;;4976030;28;20422;-65
2023/09/10 08:23:06;;;;;;;11.10;9.80;;;;;;;;;;4976091;28;20910;-65
2023/09/10 08:25:32;;;;;;;10.90;10.03;;;;;;;;;;4975816;28;20427;-65
2023/09/10 08:27:59;;;;;;;9.93;9.07;;;;;;;;;;4975822;28;20474;-65
2023/09/10 08:30:25;;;;;;;10.80;9.97;;;;;;;;;;4975757;28;20503;-65
2023/09/10 08:32:51;;;;;;;14.20;9.40;;;;;;;;;;4974818;28;20442;-65
2023/09/10 08:35:21;;;;;;;9.17;8.47;;;;;;;;;;4975802;28;20459;-65
2023/09/10 08:37:47;;;;;;;9.57;8.87;;;;;;;;;;4975657;28;20451;-65
2023/09/10 08:40:13;;;;;;;10.60;9.30;;;;;;;;;;4975864;28;20814;-65
2023/09/10 08:42:57;;;;;;;11.00;9.83;;;;;;;;;;4975785;28;20452;-65
2023/09/10 08:45:24;;;;;;;11.80;9.60;;;;;;;;;;4975088;28;20416;-65
2023/09/10 08:47:55;;;;;;;17.23;9.53;;;;;;;;;;4975423;28;20514;-65
2023/09/10 08:50:24;;;;;;;13.60;9.03;;;;;;;;;;4975566;28;20881;-65
2023/09/10 08:52:53;;;;;;;10.17;9.17;;;;;;;;;;4975458;28;20433;-65
2023/09/10 08:55:21;;;;;;;10.07;9.07;;;;;;;;;;4975412;28;20565;-65
2023/09/10 08:57:48;;;;;;;11.53;8.30;;;;;;;;;;4975301;28;20502;-65
2023/09/10 09:00:14;;;;;;;9.53;8.93;;;;;;;;;;4973992;28;20429;-65
2023/09/10 09:02:41;;;;;;;13.83;9.10;;;;;;;;;;4975538;28;20442;-65
2023/09/10 09:05:10;;;;;;;9.70;8.93;;;;;;;;;;4975422;28;20428;-65
2023/09/10 09:08:05;;;;;;;48.07;42.63;;;;;;;;;;4975094;28;20502;-65
2023/09/10 09:10:31;;;;;;;10.77;9.00;;;;;;;;;;4970101;28;20446;-65
2023/09/10 09:12:58;;;;;;;9.80;8.90;;;;;;;;;;4975062;28;20809;-65
2023/09/10 09:15:25;;;;;;;9.43;8.73;;;;;;;;;;4975221;28;20398;-64
2023/09/10 09:17:52;;;;;;;9.80;8.80;;;;;;;;;;4973718;28;20418;-64
2023/09/10 09:20:19;;;;;;;9.73;8.33;;;;;;;;;;4975057;28;20421;-64
2023/09/10 09:22:48;;;;;;;9.90;9.00;;;;;;;;;;4974659;28;20430;-64
2023/09/10 09:25:14;;;;;;;9.30;8.53;;;;;;;;;;4973792;28;20450;-64
2023/09/10 09:27:41;;;;;;;9.27;8.47;;;;;;;;;;4974660;28;20470;-64
2023/09/10 09:30:07;;;;;;;12.23;7.87;;;;;;;;;;4974659;28;20450;-63
2023/09/10 09:32:40;;;;;;;11.50;10.40;;;;;;;;;;4973375;28;20423;-64
2023/09/10 09:35:06;;;;;;;9.37;8.53;;;;;;;;;;4974885;28;20418;-64
2023/09/10 09:37:32;;;;;;;9.80;8.37;;;;;;;;;;4974748;28;20791;-64
2023/09/10 09:39:59;;;;;;;8.37;7.60;;;;;;;;;;4974638;28;20415;-64
2023/09/10 09:42:25;;;;;;;9.20;8.27;;;;;;;;;;4974452;28;20437;-64
2023/09/10 09:44:51;;;;;;;8.10;7.43;;;;;;;;;;4974499;28;20438;-65
2023/09/10 09:47:19;;;;;;;9.93;8.03;;;;;;;;;;4974366;28;20508;-65
2023/09/10 09:49:48;;;;;;;9.30;7.83;;;;;;;;;;4974354;28;20435;-64
2023/09/10 09:52:16;;;;;;;9.90;8.93;;;;;;;;;;4974586;28;20418;-64
2023/09/10 09:54:42;;;;;;;8.30;7.43;;;;;;;;;;4974433;28;20439;-64
2023/09/10 09:57:08;;;;;;;8.13;7.40;;;;;;;;;;4973435;28;20411;-64
2023/09/10 09:59:39;;;;;;;7.93;7.33;;;;;;;;;;4974164;28;20437;-64
2023/09/10 10:02:05;;;;;;;10.27;7.90;;;;;;;;;;4974157;28;20581;-64
2023/09/10 10:04:32;;;;;;;8.20;7.50;;;;;;;;;;4974312;28;20484;-64
2023/09/10 10:06:58;;;;;;;7.97;7.00;;;;;;;;;;4973984;28;20430;-64
2023/09/10 10:09:33;;;;;;;9.70;7.33;;;;;;;;;;4974025;28;20442;-64
2023/09/10 10:11:59;;;;;;;11.10;7.20;;;;;;;;;;4974121;28;20779;-64
2023/09/10 10:14:25;;;;;;;8.30;7.60;;;;;;;;;;4973998;28;20438;-64
2023/09/10 10:16:54;;;;;;;7.77;7.10;;;;;;;;;;4974162;28;20454;-64
2023/09/10 10:19:20;;;;;;;13.13;7.30;;;;;;;;;;4973956;28;20891;-64
2023/09/10 10:21:47;;;;;;;9.07;7.07;;;;;;;;;;4972643;28;20493;-64
2023/09/10 10:24:15;;;;;;;11.80;7.60;;;;;;;;;;4973966;28;20418;-65
2023/09/10 10:26:43;;;;;;;7.80;7.10;;;;;;;;;;4973877;28;20493;-65
2023/09/10 10:29:09;;;;;;;7.43;6.90;;;;;;;;;;4973788;28;20484;-65
2023/09/10 10:31:37;;;;;;;7.73;7.07;;;;;;;;;;4973842;28;20882;-64
2023/09/10 10:34:07;;;;;;;7.37;6.77;;;;;;;;;;4973779;28;20442;-64
2023/09/10 10:36:36;;;;;;;11.23;6.93;;;;;;;;;;4973803;28;20421;-64
2023/09/10 10:39:08;;;;;;;10.90;8.63;;;;;;;;;;4973494;28;20450;-64
2023/09/10 10:41:35;;;;;;;7.07;6.60;;;;;;;;;;4973719;28;20431;-64
2023/09/10 10:44:16;;;;;;;6.10;5.77;;;;;;;;;;4973687;28;20418;-64
2023/09/10 10:46:44;;;;;;;7.50;6.87;;;;;;;;;;4973653;28;20450;-64
2023/09/10 10:49:12;;;;;;;11.37;6.97;;;;;;;;;;4973582;28;21019;-64
2023/09/10 10:51:41;;;;;;;6.80;6.20;;;;;;;;;;4973991;28;21134;-64
2023/09/10 10:54:10;;;;;;;6.93;6.30;;;;;;;;;;4973611;28;20430;-64
2023/09/10 10:56:36;;;;;;;7.13;6.43;;;;;;;;;;4973732;28;20414;-64
2023/09/10 10:59:07;;;;;;;6.30;5.80;;;;;;;;;;4973452;28;20972;-64
2023/09/10 11:01:33;;;;;;;6.50;6.03;;;;;;;;;;4972321;28;20565;-64
2023/09/10 11:04:17;;;;;;;9.97;6.30;;;;;;;;;;4973447;28;20467;-64
2023/09/10 11:07:03;;;;;;;8.00;6.53;;;;;;;;;;4973516;28;20422;-64
2023/09/10 11:09:35;;;;;;;15.27;6.93;;;;;;;;;;4975695;28;20449;-64
2023/09/10 11:12:06;;;;;;;8.80;6.40;;;;;;;;;;4977305;28;20399;-64
2023/09/10 11:14:52;;;;;;;9.70;6.67;;;;;;;;;;4977286;28;20414;-64
2023/09/10 11:17:22;;;;;;;6.53;5.90;;;;;;;;;;4976996;28;20433;-64
2023/09/10 11:19:50;;;;;;;6.70;6.20;;;;;;;;;;4977421;28;21000;-64
2023/09/10 11:22:16;;;;;;;8.90;6.57;;;;;;;;;;4977229;28;20403;-64
2023/09/10 11:25:01;;;;;;;7.47;6.90;;;;;;;;;;4977371;28;20434;-64
2023/09/10 11:27:28;;;;;;;6.83;6.20;;;;;;;;;;4976961;28;20477;-64
2023/09/10 11:30:13;;;;;;;13.97;7.87;;;;;;;;;;4977017;28;20529;-64
2023/09/10 11:32:41;;;;;;;6.77;6.20;;;;;;;;;;4976958;28;20535;-64
2023/09/10 11:35:20;;;;;;;6.33;5.77;;;;;;;;;;4976751;28;20438;-64
2023/09/10 11:37:47;;;;;;;9.17;5.60;;;;;;;;;;4976806;28;20422;-64
2023/09/10 11:40:13;;;;;;;9.13;5.70;;;;;;;;;;4977059;28;20425;-64
2023/09/10 11:42:43;;;;;;;7.10;5.87;;;;;;;;;;4975308;28;20434;-64
2023/09/10 11:45:10;;;;;;;7.07;6.57;;;;;;;;;;4976601;28;20788;-64
2023/09/10 11:47:40;;;;;;;7.10;5.60;;;;;;;;;;4976559;28;20484;-64
2023/09/10 11:50:06;;;;;;;6.33;5.70;;;;;;;;;;4976565;28;20438;-64
2023/09/10 11:52:34;;;;;;;5.40;5.00;;;;;;;;;;4976806;28;20526;-64
2023/09/10 11:55:00;;;;;;;8.03;5.93;;;;;;;;;;4976593;28;20859;-64
2023/09/10 11:57:27;;;;;;;5.60;5.30;;;;;;;;;;4976501;28;20969;-64
2023/09/10 11:59:53;;;;;;;6.30;5.70;;;;;;;;;;4976445;28;20968;-64
2023/09/10 12:02:24;;;;;;;5.57;5.03;;;;;;;;;;4976470;28;20395;-65
2023/09/10 12:04:50;;;;;;;6.03;5.47;;;;;;;;;;4976718;28;20466;-65
2023/09/10 12:07:16;;;;;;;7.30;5.33;;;;;;;;;;4976342;28;20445;-65
2023/09/10 12:09:42;;;;;;;7.37;5.17;;;;;;;;;;4976504;28;20462;-64
2023/09/10 12:12:10;;;;;;;5.80;5.30;;;;;;;;;;4976237;28;20399;-64
2023/09/10 12:14:37;;;;;;;6.40;5.97;;;;;;;;;;4976188;28;20423;-64
2023/09/10 12:17:04;;;;;;;5.47;5.27;;;;;;;;;;4976146;28;20403;-64
2023/09/10 12:19:30;;;;;;;6.03;5.73;;;;;;;;;;4975925;28;20403;-64
2023/09/10 12:21:56;;;;;;;9.07;6.10;;;;;;;;;;4975455;28;20457;-64
2023/09/10 12:24:22;;;;;;;6.57;5.80;;;;;;;;;;4975980;28;20934;-65
2023/09/10 12:26:48;;;;;;;7.30;5.27;;;;;;;;;;4976013;28;20478;-65
2023/09/10 12:29:14;;;;;;;6.10;5.57;;;;;;;;;;4975968;28;20569;-64
2023/09/10 12:31:42;;;;;;;6.73;5.83;;;;;;;;;;4975953;28;20415;-64
2023/09/10 12:34:09;;;;;;;6.43;5.87;;;;;;;;;;4975787;28;20429;-64
2023/09/10 12:36:36;;;;;;;6.20;5.80;;;;;;;;;;4975902;28;20407;-64
2023/09/10 12:39:04;;;;;;;8.33;5.30;;;;;;;;;;4975874;28;20419;-64
2023/09/10 12:41:30;;;;;;;8.20;5.70;;;;;;;;;;4974679;28;20497;-64
2023/09/10 12:43:56;;;;;;;8.97;6.07;;;;;;;;;;4976109;28;20851;-64
2023/09/10 12:46:25;;;;;;;5.80;5.60;;;;;;;;;;4974957;28;20501;-65
2023/09/10 12:48:51;;;;;;;5.10;4.80;;;;;;;;;;4975262;28;20564;-64
2023/09/10 12:51:17;;;;;;;6.10;5.40;;;;;;;;;;4975477;28;20514;-64
2023/09/10 12:53:43;;;;;;;7.47;5.50;;;;;;;;;;4975513;28;20945;-64
2023/09/10 12:56:12;;;;;;;7.23;5.20;;;;;;;;;;4975174;28;20437;-64
2023/09/10 12:58:38;;;;;;;6.47;5.80;;;;;;;;;;4975503;28;20406;-64
2023/09/10 13:01:06;;;;;;;9.93;5.30;;;;;;;;;;4975304;28;20521;-64
2023/09/10 13:03:32;;;;;;;7.73;5.60;;;;;;;;;;4975324;28;20957;-64
2023/09/10 13:05:58;;;;;;;13.07;5.60;;;;;;;;;;4975609;28;20466;-64
2023/09/10 13:08:24;;;;;;;6.63;5.87;;;;;;;;;;4975093;28;20215;-64
2023/09/10 13:10:50;;;;;;;7.90;5.80;;;;;;;;;;4975189;28;20473;-64
2023/09/10 13:13:16;;;;;;;12.33;5.70;;;;;;;;;;4975123;28;20833;-64
2023/09/10 13:15:42;;;;;;;5.40;5.00;;;;;;;;;;4975047;28;20493;-64
2023/09/10 13:18:10;;;;;;;6.67;5.50;;;;;;;;;;4975423;28;20399;-64
2023/09/10 13:20:37;;;;;;;5.37;4.97;;;;;;;;;;4974954;28;20458;-64
2023/09/10 13:23:05;;;;;;;8.07;5.73;;;;;;;;;;4974986;28;20446;-64
2023/09/10 13:25:31;;;;;;;5.37;5.07;;;;;;;;;;4974843;28;20913;-64
2023/09/10 13:27:57;;;;;;;5.20;4.80;;;;;;;;;;4974715;28;20829;-64
2023/09/10 13:30:24;;;;;;;5.87;5.30;;;;;;;;;;4974705;28;20407;-64
2023/09/10 13:32:50;;;;;;;6.63;4.80;;;;;;;;;;4974594;28;20494;-64
2023/09/10 13:35:16;;;;;;;8.53;5.07;;;;;;;;;;4974738;28;20411;-64
2023/09/10 13:37:42;;;;;;;9.13;5.30;;;;;;;;;;4974946;28;20430;-65
2023/09/10 13:40:09;;;;;;;6.63;4.93;;;;;;;;;;4974998;28;20425;-65
2023/09/10 13:42:37;;;;;;;6.20;4.13;;;;;;;;;;4974668;28;20415;-65
2023/09/10 13:45:03;;;;;;;5.13;4.73;;;;;;;;;;4974497;28;20433;-64
2023/09/10 13:47:30;;;;;;;5.60;4.60;;;;;;;;;;4974446;28;20516;-64
2023/09/10 13:49:55;;;;;;;5.20;4.67;;;;;;;;;;4974558;28;20414;-64
2023/09/10 13:52:21;;;;;;;6.03;4.63;;;;;;;;;;4974521;28;20445;-64
2023/09/10 13:54:47;;;;;;;4.83;4.40;;;;;;;;;;4974405;28;20183;-64
2023/09/10 13:57:13;;;;;;;10.23;5.27;;;;;;;;;;4974579;28;20437;-64
2023/09/10 13:59:42;;;;;;;7.17;4.87;;;;;;;;;;4974855;28;20234;-64
2023/09/10 14:02:08;;;;;;;9.57;5.40;;;;;;;;;;4974593;28;20443;-64
2023/09/10 14:04:34;;;;;;;5.93;5.10;;;;;;;;;;4974353;28;20419;-64
2023/09/10 14:07:00;;;;;;;4.67;4.40;;;;;;;;;;4974227;28;20262;-64
2023/09/10 14:09:26;;;;;;;5.57;5.07;;;;;;;;;;4974255;28;20593;-64
2023/09/10 14:11:52;;;;;;;11.70;4.80;;;;;;;;;;4974469;28;20544;-64
2023/09/10 14:14:18;;;;;;;5.20;4.80;;;;;;;;;;4974083;28;20943;-64
2023/09/10 14:16:44;;;;;;;5.60;5.10;;;;;;;;;;4974099;28;20450;-64
2023/09/10 14:19:10;;;;;;;7.03;6.20;;;;;;;;;;4973933;28;20940;-64
2023/09/10 14:21:38;;;;;;;5.23;5.03;;;;;;;;;;4973886;28;20457;-64
2023/09/10 14:24:04;;;;;;;5.90;5.30;;;;;;;;;;4973858;28;20198;-64
2023/09/10 14:26:30;;;;;;;9.70;5.40;;;;;;;;;;4974007;28;20442;-64
2023/09/10 14:28:56;;;;;;;7.13;5.70;;;;;;;;;;4973955;28;20938;-64
2023/09/10 14:31:22;;;;;;;6.20;5.60;;;;;;;;;;4973903;28;20478;-64